Time;durP1;ratioP1;P1;durP2;ratioP2;P2;SDS_P1;SDS_P2;PMS_P1;PMS_P2;Temp;Humidity;BMP_temperature;BMP_pressure;BME280_temperature;BME280_humidity;BME280_pressure;Samples;Min_cycle;Max_cycle;Signal;HPM_P1;HPM_P2
2020/12/13 09:45:47;;;;;;;31.73;16.90;;;;;;;;;;4261469;27;20364;-55
2020/12/13 09:48:08;;;;;;;28.70;16.83;;;;;;;;;;4244439;27;20058;-54
2020/12/13 09:50:30;;;;;;;29.50;15.48;;;;;;;;;;4259849;27;20050;-56
2020/12/13 09:52:51;;;;;;;34.17;22.58;;;19.10;49.90;;;;;;4261209;27;20106;-45
2020/12/13 09:55:11;;;;;;;26.83;14.83;;;19.40;64.10;;;;;;4244048;28;20050;-44
2020/12/13 09:57:34;;;;;;;32.33;16.67;;;19.40;52.00;;;;;;4242717;28;20657;-43
2020/12/13 09:59:54;;;;;;;34.93;17.33;;;19.20;51.60;;;;;;4227728;28;20127;-45
2020/12/13 10:02:15;;;;;;;29.45;15.85;;;19.10;51.60;;;;;;4228036;28;20335;-43
2020/12/13 10:04:35;;;;;;;29.15;17.42;;;19.00;51.80;;;;;;4239567;28;20101;-45
2020/12/13 10:09:48;;;;;;;26.33;15.27;;;19.00;51.90;;;;;;4208168;28;20131;-44
2020/12/13 10:12:11;;;;;;;23.65;13.90;;;18.90;51.90;;;;;;4238161;27;20066;-47
2020/12/13 10:14:31;;;;;;;24.53;14.23;;;19.00;51.90;;;;;;4242280;28;20058;-44
2020/12/13 10:16:52;;;;;;;27.20;14.10;;;18.90;52.10;;;;;;4241959;28;20284;-47
2020/12/13 10:19:19;;;;;;;28.08;14.45;;;18.90;52.20;;;;;;4240503;28;20582;-48
2020/12/13 10:21:39;;;;;;;24.05;14.82;;;18.90;52.00;;;;;;4240322;28;20065;-47
2020/12/13 10:24:04;;;;;;;27.10;14.02;;;18.90;51.90;;;;;;4226838;28;20062;-45
2020/12/13 10:26:33;;;;;;;27.10;13.00;;;18.90;51.90;;;;;;4240175;27;20556;-44
2020/12/13 10:29:03;;;;;;;32.38;13.07;;;19.00;52.10;;;;;;4225398;28;20118;-46
2020/12/13 10:31:28;;;;;;;25.60;12.48;;;19.00;52.10;;;;;;4225830;28;20516;-46
2020/12/13 10:33:48;;;;;;;27.92;11.68;;;19.00;52.30;;;;;;4229717;28;20110;-46
2020/12/13 10:36:14;;;;;;;54.20;14.73;;;19.00;52.30;;;;;;4227026;28;20128;-47
2020/12/13 16:33:24;;;;;;;17.20;8.20;;;19.50;50.60;;;;;;4251115;27;20372;-58
2020/12/13 16:35:45;;;;;;;12.82;7.93;;;19.50;51.10;;;;;;4237721;28;20214;-58
2020/12/13 16:38:10;;;;;;;11.80;8.10;;;19.50;51.30;;;;;;4237480;28;20050;-58
2020/12/13 16:40:34;;;;;;;13.93;8.07;;;19.50;51.00;;;;;;4240107;28;20058;-58
2020/12/13 16:43:23;;;;;;;14.00;8.50;;;19.50;50.60;;;;;;4239152;28;20070;-58
2020/12/13 16:45:50;;;;;;;;;;;19.50;50.40;;;;;;4228288;28;20508;-57
2020/12/13 16:48:14;;;;;;;11.50;7.63;;;19.50;50.40;;;;;;4225709;28;19930;-58
2020/12/13 16:53:59;;;;;;;14.40;8.20;;;19.50;50.70;;;;;;4147762;28;20057;-58
2020/12/13 16:56:13;;;;;;;14.27;8.13;;;19.50;50.70;;;;;;4222097;28;20125;-58
2020/12/13 16:58:36;;;;;;;10.18;7.20;;;19.50;50.60;;;;;;4231375;28;20802;-57
2020/12/13 17:00:57;;;;;;;13.02;8.05;;;19.50;50.60;;;;;;4225592;28;20123;-58
2020/12/13 17:03:20;;;;;;;12.32;7.20;;;19.50;50.60;;;;;;4226805;28;20567;-58
2020/12/13 17:05:42;;;;;;;11.48;8.13;;;19.50;50.60;;;;;;4227645;28;20132;-58
2020/12/13 17:08:03;;;;;;;9.77;7.38;;;19.50;50.50;;;;;;4213191;28;20121;-58
2020/12/13 17:10:24;;;;;;;9.68;7.18;;;19.50;50.50;;;;;;4231866;28;20059;-58
2020/12/13 17:12:45;;;;;;;8.82;7.10;;;19.50;50.60;;;;;;4240823;28;20058;-58
2020/12/13 17:15:09;;;;;;;9.95;7.35;;;19.50;50.40;;;;;;4223708;28;20148;-58
2020/12/13 17:17:31;;;;;;;10.45;7.07;;;19.50;50.50;;;;;;4225148;28;20497;-58
2020/12/13 17:19:52;;;;;;;11.23;7.28;;;19.50;50.40;;;;;;4204963;28;20097;-58
2020/12/13 17:22:14;;;;;;;9.70;7.38;;;19.50;50.40;;;;;;4223167;28;20113;-58
2020/12/13 17:24:38;;;;;;;9.80;6.72;;;19.40;50.30;;;;;;4223147;28;20063;-58
2020/12/13 17:27:00;;;;;;;9.77;6.70;;;19.40;50.20;;;;;;4224388;28;20054;-58
2020/12/13 17:29:20;;;;;;;9.60;6.47;;;19.40;50.20;;;;;;4225591;28;20112;-58
2020/12/13 17:31:41;;;;;;;9.30;6.57;;;19.40;50.20;;;;;;4222467;28;20529;-58
2020/12/13 17:34:03;;;;;;;10.15;6.90;;;19.40;50.20;;;;;;4223705;28;20712;-58
2020/12/13 17:36:30;;;;;;;12.52;7.15;;;19.40;50.20;;;;;;4223571;28;20118;-58
2020/12/13 17:38:53;;;;;;;11.25;6.78;;;19.40;50.20;;;;;;4221922;28;20117;-58
2020/12/13 17:41:14;;;;;;;10.43;6.70;;;19.40;50.20;;;;;;4205904;28;20051;-58
2020/12/13 17:43:40;;;;;;;10.23;6.55;;;19.40;50.20;;;;;;4205377;28;20119;-58
2020/12/13 17:46:02;;;;;;;9.63;7.18;;;19.40;50.10;;;;;;4213455;28;20058;-58
2020/12/13 17:48:23;;;;;;;9.45;6.40;;;19.40;50.10;;;;;;4211695;28;20063;-58
2020/12/13 17:51:04;;;;;;;8.55;6.70;;;19.40;50.10;;;;;;4212262;28;20738;-58
2020/12/13 17:53:35;;;;;;;9.40;6.50;;;19.40;50.10;;;;;;4211304;28;20418;-58
2020/12/13 17:58:47;;;;;;;8.68;6.38;;;19.40;50.00;;;;;;4212232;28;20051;-58
2020/12/13 18:01:10;;;;;;;10.48;6.82;;;19.40;49.90;;;;;;4211916;28;20047;-58
2020/12/13 18:03:31;;;;;;;10.73;6.10;;;19.40;50.10;;;;;;4209349;28;20690;-58
2020/12/13 18:05:53;;;;;;;8.73;6.13;;;19.40;50.20;;;;;;4210728;28;20051;-58
2020/12/13 18:08:14;;;;;;;10.63;6.53;;;19.40;50.30;;;;;;4223568;28;20462;-58
2020/12/13 18:10:36;;;;;;;;;;;19.40;50.30;;;;;;4210041;28;20054;-57
2020/12/13 18:13:00;;;;;;;9.82;6.97;;;19.40;50.40;;;;;;4206954;28;20013;-53
2020/12/13 18:15:23;;;;;;;8.68;5.78;;;19.40;50.80;;;;;;4209040;28;20512;-57
2020/12/13 18:17:46;;;;;;;10.27;6.78;;;19.40;50.80;;;;;;4207664;28;20070;-56
2020/12/13 18:20:07;;;;;;;14.77;7.20;;;19.50;50.80;;;;;;4194367;28;20066;-56
2020/12/13 18:22:30;;;;;;;8.10;6.18;;;19.50;50.90;;;;;;4208422;28;20281;-56
2020/12/13 18:24:50;;;;;;;9.57;6.63;;;19.40;50.90;;;;;;4209202;28;20536;-56
2020/12/13 18:27:13;;;;;;;9.35;6.93;;;19.50;50.70;;;;;;4208352;28;20059;-56
2020/12/13 18:29:34;;;;;;;13.25;6.80;;;19.50;50.60;;;;;;4210559;28;20513;-56
2020/12/13 18:31:55;;;;;;;9.73;6.75;;;19.50;50.40;;;;;;4195711;28;20540;-56
2020/12/13 18:34:15;;;;;;;18.57;6.73;;;19.50;50.40;;;;;;4209600;28;20207;-56
2020/12/13 18:36:35;;;;;;;12.23;5.80;;;19.50;50.50;;;;;;4196746;28;20067;-57
2020/12/13 18:38:56;;;;;;;15.37;6.90;;;19.50;50.90;;;;;;4195945;28;20098;-57
2020/12/13 18:41:20;;;;;;;13.85;5.93;;;19.50;50.70;;;;;;4196781;28;20580;-57
2020/12/13 18:43:41;;;;;;;11.45;6.28;;;19.50;51.10;;;;;;4212402;28;20575;-57
2020/12/13 18:46:03;;;;;;;8.80;6.22;;;19.40;50.40;;;;;;4212244;28;20058;-57
2020/12/13 18:48:23;;;;;;;12.85;6.47;;;19.40;50.20;;;;;;4212150;28;20175;-57
2020/12/13 18:50:46;;;;;;;9.00;6.47;;;19.40;50.20;;;;;;4197288;28;20063;-57
2020/12/13 18:53:07;;;;;;;8.50;6.15;;;19.40;50.20;;;;;;4196646;28;20098;-57
2020/12/13 18:55:27;;;;;;;11.00;6.63;;;19.40;50.10;;;;;;4212413;28;20109;-57
2020/12/13 18:57:54;;;;;;;9.80;6.53;;;19.40;50.00;;;;;;4194726;28;20063;-54
2020/12/13 19:00:17;;;;;;;11.85;6.30;;;19.40;50.00;;;;;;4210894;28;20054;-54
2020/12/13 19:02:52;;;;;;;8.93;6.65;;;19.40;50.20;;;;;;4209809;28;20054;-54
2020/12/13 19:05:16;;;;;;;14.50;6.20;;;19.40;50.20;;;;;;4211053;28;20709;-54
2020/12/13 19:07:37;;;;;;;9.95;6.28;;;19.40;50.70;;;;;;4207609;28;20528;-54
2020/12/13 19:10:00;;;;;;;14.30;7.53;;;19.40;50.30;;;;;;4209765;28;20452;-52
2020/12/13 19:12:24;;;;;;;19.80;10.35;;;19.40;50.10;;;;;;4208414;28;20567;-59
2020/12/13 19:14:47;;;;;;;27.17;19.58;;;19.50;49.40;;;;;;4210285;28;20055;-58
